createdAt,value
2023-01-04T00:00:02.075Z,87.22
2023-01-04T00:01:02.088Z,87.22
2023-01-04T00:02:02.063Z,87.22
2023-01-04T00:03:02.084Z,87.42
2023-01-04T00:04:02.228Z,87.49
2023-01-04T00:05:02.022Z,87.42
2023-01-04T00:06:02.000Z,87.38
2023-01-04T00:07:02.743Z,87.28
2023-01-04T00:08:01.975Z,87.18
2023-01-04T00:09:01.949Z,87.18
2023-01-04T00:10:01.985Z,87.18
2023-01-04T00:11:01.943Z,87.28
2023-01-04T00:12:02.006Z,87.18
2023-01-04T00:13:01.906Z,86.97
2023-01-04T00:14:01.884Z,86.97
2023-01-04T00:15:01.880Z,87.07
2023-01-04T00:16:07.616Z,87.07
2023-01-04T00:17:02.851Z,87.07
2023-01-04T00:18:01.861Z,86.87
2023-01-04T00:19:01.797Z,86.87
2023-01-04T00:20:01.810Z,86.72
2023-01-04T00:21:01.786Z,86.72
2023-01-04T00:22:01.830Z,86.83
2023-01-04T00:23:01.739Z,86.83
2023-01-04T00:24:01.783Z,86.83
2023-01-04T00:25:01.776Z,86.93
2023-01-04T00:26:01.728Z,86.72
2023-01-04T00:27:01.695Z,86.62
2023-01-04T00:28:01.728Z,86.62
2023-01-04T00:29:01.673Z,86.62
2023-01-04T00:30:01.705Z,86.52
2023-01-04T00:31:01.674Z,86.42
2023-01-04T00:32:01.665Z,86.62
2023-01-04T00:33:01.635Z,86.62
2023-01-04T00:34:01.629Z,86.62
2023-01-04T00:35:02.550Z,86.62
2023-01-04T00:36:01.587Z,86.62
2023-01-04T00:37:01.585Z,86.72
2023-01-04T00:38:01.615Z,86.93
2023-01-04T00:39:01.563Z,86.93
2023-01-04T00:40:01.572Z,86.62
2023-01-04T00:41:01.603Z,86.72
2023-01-04T00:42:02.075Z,86.72
2023-01-04T00:43:01.514Z,86.83
2023-01-04T00:44:01.520Z,86.83
2023-01-04T00:45:01.482Z,86.83
2023-01-04T00:46:01.562Z,86.93
2023-01-04T00:47:01.474Z,86.83
2023-01-04T00:48:01.439Z,86.79
2023-01-04T00:49:01.405Z,86.58
2023-01-04T00:50:01.406Z,86.48
2023-01-04T00:51:01.403Z,86.58
2023-01-04T00:52:02.148Z,87.10
2023-01-04T00:53:01.392Z,87.40
2023-01-04T00:54:01.379Z,87.82
2023-01-04T00:55:01.360Z,88.12
2023-01-04T00:56:01.373Z,88.02
2023-01-04T00:57:01.482Z,87.92
2023-01-04T00:58:01.321Z,88.12
2023-01-04T00:59:01.297Z,88.12
2023-01-04T01:00:01.303Z,88.23
2023-01-04T01:01:01.263Z,88.33
2023-01-04T01:02:01.428Z,88.53
2023-01-04T01:03:01.499Z,88.95
2023-01-04T01:04:01.357Z,89.25
2023-01-04T01:05:01.989Z,89.70
2023-01-04T01:06:02.165Z,90.32
2023-01-04T01:07:01.224Z,90.53
2023-01-04T01:08:01.189Z,90.83
2023-01-04T01:09:01.171Z,91.04
2023-01-04T01:10:01.157Z,91.25
2023-01-04T01:11:01.236Z,91.45
2023-01-04T01:12:01.130Z,91.45
2023-01-04T01:13:01.128Z,91.55
2023-01-04T01:14:01.112Z,91.97
2023-01-04T01:15:01.178Z,92.17
2023-01-04T01:16:01.249Z,92.48
2023-01-04T01:17:01.124Z,92.58
2023-01-04T01:18:10.368Z,92.83
2023-01-04T01:19:01.034Z,93.04
2023-01-04T01:20:01.028Z,93.14
2023-01-04T01:21:01.052Z,93.35
2023-01-04T01:22:00.996Z,93.65
2023-01-04T01:23:00.983Z,93.86
2023-01-04T01:24:00.998Z,93.96
2023-01-04T01:25:01.004Z,94.37
2023-01-04T01:26:00.995Z,94.58
2023-01-04T01:27:00.943Z,94.99
2023-01-04T01:28:00.973Z,95.20
2023-01-04T01:29:00.961Z,95.30
2023-01-04T01:30:00.912Z,95.50
2023-01-04T01:31:05.138Z,95.71
2023-01-04T01:32:02.004Z,95.81
2023-01-04T01:33:00.860Z,95.92
2023-01-04T01:34:00.872Z,96.12
2023-01-04T01:35:00.814Z,96.33
2023-01-04T01:36:00.882Z,96.43
2023-01-04T01:37:00.800Z,96.53
2023-01-04T01:38:00.797Z,96.73
2023-01-04T01:39:00.850Z,96.94
2023-01-04T01:40:00.788Z,97.15
2023-01-04T01:41:00.748Z,97.25
2023-01-04T01:42:00.734Z,97.45
2023-01-04T01:43:00.768Z,97.56
2023-01-04T01:44:00.752Z,97.87
2023-01-04T01:45:00.762Z,98.02
2023-01-04T01:46:00.737Z,98.22
2023-01-04T01:47:00.718Z,98.33
2023-01-04T01:48:01.391Z,98.43
2023-01-04T01:49:01.632Z,98.53
2023-01-04T01:50:00.670Z,98.74
2023-01-04T01:51:00.622Z,98.84
2023-01-04T01:52:00.640Z,98.94
2023-01-04T01:53:00.618Z,99.15
2023-01-04T01:54:00.790Z,99.25
2023-01-04T01:55:00.550Z,99.35
2023-01-04T01:56:00.586Z,99.56
2023-01-04T01:57:00.521Z,99.66
2023-01-04T01:58:00.521Z,99.77
2023-01-04T01:59:00.541Z,99.87
2023-01-04T02:00:00.564Z,99.97
2023-01-04T02:01:00.494Z,99.99
2023-01-04T02:02:00.680Z,99.99
2023-01-04T02:03:00.584Z,99.99
2023-01-04T02:04:00.539Z,99.99
2023-01-04T02:05:00.447Z,99.99
2023-01-04T02:06:00.420Z,99.99
2023-01-04T02:07:00.412Z,99.99
2023-01-04T02:08:00.404Z,99.99
2023-01-04T02:09:00.398Z,99.99
2023-01-04T02:10:00.388Z,99.99
2023-01-04T02:11:00.380Z,99.99
2023-01-04T02:12:00.430Z,99.99
2023-01-04T02:13:00.337Z,99.99
2023-01-04T02:14:00.311Z,99.99
2023-01-04T02:15:00.318Z,99.99
2023-01-04T02:16:00.363Z,99.99
2023-01-04T02:17:00.280Z,99.99
2023-01-04T02:18:00.267Z,99.99
2023-01-04T02:19:00.227Z,99.99
2023-01-04T02:20:00.271Z,99.99
2023-01-04T02:21:00.221Z,99.99
2023-01-04T02:22:00.264Z,99.99
2023-01-04T02:23:00.219Z,99.99
2023-01-04T02:24:00.224Z,99.99
2023-01-04T02:25:00.150Z,99.99
2023-01-04T02:26:00.163Z,99.99
2023-01-04T02:27:00.149Z,99.99
2023-01-04T02:28:00.169Z,99.99
2023-01-04T02:29:00.117Z,99.99
2023-01-04T02:30:00.156Z,99.99
2023-01-04T02:31:00.252Z,99.99
2023-01-04T02:32:00.113Z,99.99
2023-01-04T02:33:00.110Z,99.99
2023-01-04T02:34:00.120Z,99.99
2023-01-04T02:35:00.051Z,99.99
2023-01-04T02:36:00.097Z,99.99
2023-01-04T02:37:00.072Z,99.99
2023-01-04T02:38:00.055Z,99.99
2023-01-04T02:38:59.966Z,99.99
2023-01-04T02:40:00.003Z,99.99
2023-01-04T02:40:59.971Z,99.99
2023-01-04T02:41:59.984Z,99.99
2023-01-04T02:42:59.967Z,99.99
2023-01-04T02:43:59.932Z,99.99
2023-01-04T02:44:59.935Z,99.99
2023-01-04T02:45:59.887Z,99.99
2023-01-04T02:47:00.013Z,99.99
2023-01-04T02:47:59.898Z,99.99
2023-01-04T02:48:59.880Z,99.99
2023-01-04T02:50:04.581Z,99.99
2023-01-04T02:51:00.829Z,99.99
2023-01-04T02:51:59.870Z,99.99
2023-01-04T02:52:59.796Z,99.99
2023-01-04T02:53:59.816Z,99.99
2023-01-04T02:55:00.528Z,99.99
2023-01-04T02:55:59.797Z,99.99
2023-01-04T02:57:05.243Z,99.99
2023-01-04T02:58:00.763Z,99.99
2023-01-04T02:58:59.710Z,99.99
2023-01-04T02:59:59.737Z,99.99
2023-01-04T03:00:59.725Z,99.99
2023-01-04T03:01:59.877Z,99.99
2023-01-04T03:02:59.831Z,99.99
2023-01-04T03:03:59.783Z,99.99
2023-01-04T03:04:59.661Z,99.99
2023-01-04T03:05:59.636Z,99.99
2023-01-04T03:06:59.649Z,99.99
2023-01-04T03:07:59.657Z,99.99
2023-01-04T03:08:59.585Z,99.99
2023-01-04T03:09:59.619Z,99.99
2023-01-04T03:10:59.554Z,99.99
2023-01-04T03:11:59.622Z,99.99
2023-01-04T03:12:59.582Z,99.99
2023-01-04T03:13:59.532Z,99.99
2023-01-04T03:14:59.536Z,99.99
2023-01-04T03:15:59.573Z,99.99
2023-01-04T03:16:59.483Z,99.99
2023-01-04T03:17:59.523Z,99.99
2023-01-04T03:18:59.492Z,99.99
2023-01-04T03:19:59.454Z,99.99
2023-01-04T03:20:59.456Z,99.99
2023-01-04T03:21:59.491Z,99.99
2023-01-04T03:22:59.424Z,99.99
2023-01-04T03:23:59.418Z,99.99
2023-01-04T03:24:59.401Z,99.99
2023-01-04T03:25:59.438Z,99.99
2023-01-04T03:26:59.383Z,99.99
2023-01-04T03:27:59.346Z,99.99
2023-01-04T03:28:59.340Z,99.99
2023-01-04T03:29:59.315Z,99.99
2023-01-04T03:30:59.313Z,99.99
2023-01-04T03:31:59.419Z,99.99
2023-01-04T03:32:59.291Z,99.99
2023-01-04T03:33:59.316Z,99.99
2023-01-04T03:34:59.246Z,99.99
2023-01-04T03:35:59.245Z,99.99
2023-01-04T03:36:59.220Z,99.99
2023-01-04T03:37:59.247Z,99.99
2023-01-04T03:38:59.201Z,99.99
2023-01-04T03:39:59.205Z,99.99
2023-01-04T03:40:59.170Z,99.98
2023-01-04T03:41:59.187Z,99.73
2023-01-04T03:42:59.163Z,99.52
2023-01-04T03:43:59.160Z,99.21
2023-01-04T03:45:01.776Z,99.11
2023-01-04T03:46:00.141Z,98.91
2023-01-04T03:46:59.186Z,98.80
2023-01-04T03:47:59.109Z,98.70
2023-01-04T03:48:59.103Z,98.70
2023-01-04T03:49:59.096Z,98.70
2023-01-04T03:50:59.030Z,98.70
2023-01-04T03:51:59.084Z,98.70
2023-01-04T03:52:59.034Z,98.60
2023-01-04T03:53:59.038Z,98.60
2023-01-04T03:54:59.002Z,98.60
2023-01-04T03:55:58.983Z,98.60
2023-01-04T03:56:58.996Z,98.50
2023-01-04T03:57:58.963Z,98.50
2023-01-04T03:58:58.934Z,98.50
2023-01-04T03:59:58.936Z,98.39
2023-01-04T04:00:58.972Z,98.29
2023-01-04T04:01:59.048Z,98.29
2023-01-04T04:02:58.904Z,98.14
2023-01-04T04:03:59.011Z,98.04
2023-01-04T04:04:58.869Z,97.94
2023-01-04T04:05:58.876Z,97.63
2023-01-04T04:06:58.837Z,97.32
2023-01-04T04:07:58.849Z,97.22
2023-01-04T04:08:58.806Z,97.22
2023-01-04T04:09:58.811Z,97.22
2023-01-04T04:10:58.781Z,97.22
2023-01-04T04:11:58.821Z,97.22
2023-01-04T04:12:58.777Z,97.22
2023-01-04T04:13:58.753Z,96.81
2023-01-04T04:14:58.749Z,96.45
2023-01-04T04:15:58.772Z,96.35
2023-01-04T04:16:58.799Z,96.25
2023-01-04T04:17:58.711Z,96.25
2023-01-04T04:19:01.912Z,96.15
2023-01-04T04:19:59.688Z,96.04
2023-01-04T04:20:58.658Z,96.25
2023-01-04T04:21:58.629Z,96.15
2023-01-04T04:22:58.647Z,96.04
2023-01-04T04:23:58.626Z,96.04
2023-01-04T04:24:58.629Z,96.04
2023-01-04T04:25:58.572Z,96.15
2023-01-04T04:26:58.571Z,95.94
2023-01-04T04:27:58.568Z,95.84
2023-01-04T04:28:58.549Z,95.84
2023-01-04T04:29:58.542Z,96.04
2023-01-04T04:30:58.541Z,96.25
2023-01-04T04:31:58.568Z,96.35
2023-01-04T04:32:58.515Z,96.25
2023-01-04T04:33:58.475Z,96.35
2023-01-04T04:34:58.501Z,96.45
2023-01-04T04:35:58.435Z,96.45
2023-01-04T04:36:58.468Z,96.25
2023-01-04T04:37:58.439Z,96.35
2023-01-04T04:38:58.429Z,96.56
2023-01-04T04:39:58.397Z,96.45
2023-01-04T04:40:58.430Z,96.35
2023-01-04T04:41:58.376Z,96.35
2023-01-04T04:42:58.401Z,96.45
2023-01-04T04:43:58.376Z,96.56
2023-01-04T04:44:58.354Z,96.77
2023-01-04T04:45:58.357Z,96.77
2023-01-04T04:46:58.306Z,96.77
2023-01-04T04:47:58.310Z,96.77
2023-01-04T04:48:58.312Z,96.66
2023-01-04T04:49:58.281Z,96.56
2023-01-04T04:50:58.309Z,96.35
2023-01-04T04:51:58.234Z,96.35
2023-01-04T04:52:58.237Z,96.35
2023-01-04T04:53:58.240Z,96.35
2023-01-04T04:54:58.238Z,96.25
2023-01-04T04:55:58.212Z,96.15
2023-01-04T04:56:58.206Z,95.94
2023-01-04T04:57:58.206Z,95.94
2023-01-04T04:58:58.187Z,95.84
2023-01-04T04:59:58.157Z,95.69
2023-01-04T05:00:58.244Z,95.79
2023-01-04T05:01:58.365Z,95.90
2023-01-04T05:02:58.273Z,96.04
2023-01-04T05:03:58.107Z,96.04
2023-01-04T05:04:58.100Z,96.25
2023-01-04T05:05:58.096Z,96.25
2023-01-04T05:06:58.100Z,96.35
2023-01-04T05:07:58.033Z,96.25
2023-01-04T05:08:58.050Z,96.10
2023-01-04T05:09:58.029Z,96.15
2023-01-04T05:10:58.050Z,96.10
2023-01-04T05:11:57.978Z,96.15
2023-01-04T05:12:58.294Z,96.04
2023-01-04T05:13:57.970Z,96.04
2023-01-04T05:14:57.995Z,95.90
2023-01-04T05:15:57.952Z,95.90
2023-01-04T05:16:58.040Z,95.79
2023-01-04T05:17:57.939Z,95.69
2023-01-04T05:18:57.887Z,95.49
2023-01-04T05:19:57.895Z,95.69
2023-01-04T05:20:57.887Z,95.79
2023-01-04T05:21:57.885Z,95.79
2023-01-04T05:22:57.865Z,95.69
2023-01-04T05:23:57.842Z,95.79
2023-01-04T05:24:57.841Z,95.90
2023-01-04T05:25:57.805Z,95.90
2023-01-04T05:26:57.819Z,96.10
2023-01-04T05:27:57.800Z,96.10
2023-01-04T05:28:57.849Z,96.10
2023-01-04T05:29:57.783Z,95.90
2023-01-04T05:30:57.817Z,96.00
2023-01-04T05:31:57.819Z,96.10
2023-01-04T05:32:57.724Z,96.10
2023-01-04T05:33:57.711Z,96.10
2023-01-04T05:34:57.695Z,96.10
2023-01-04T05:35:57.674Z,96.10
2023-01-04T05:36:57.674Z,96.10
2023-01-04T05:37:57.770Z,96.00
2023-01-04T05:38:57.673Z,95.90
2023-01-04T05:39:57.635Z,95.79
2023-01-04T05:40:57.641Z,95.69
2023-01-04T05:41:57.619Z,95.59
2023-01-04T05:42:57.612Z,95.59
2023-01-04T05:43:57.555Z,95.59
2023-01-04T05:44:57.554Z,95.59
2023-01-04T05:45:57.615Z,95.59
2023-01-04T05:46:57.523Z,95.59
2023-01-04T05:47:57.539Z,95.59
2023-01-04T05:48:57.553Z,95.69
2023-01-04T05:49:57.484Z,95.69
2023-01-04T05:50:57.529Z,95.49
2023-01-04T05:51:57.490Z,95.28
2023-01-04T05:52:57.480Z,95.28
2023-01-04T05:53:57.437Z,95.18
2023-01-04T05:54:57.469Z,95.18
2023-01-04T05:55:57.428Z,95.18
2023-01-04T05:56:57.410Z,95.28
2023-01-04T05:57:57.398Z,94.87
2023-01-04T05:58:57.429Z,94.67
2023-01-04T05:59:57.386Z,94.62
2023-01-04T06:00:57.389Z,94.62
2023-01-04T06:01:57.413Z,94.73
2023-01-04T06:02:57.480Z,94.93
2023-01-04T06:03:57.420Z,94.93
2023-01-04T06:04:59.439Z,95.03
2023-01-04T06:05:57.287Z,94.93
2023-01-04T06:06:57.270Z,95.07
2023-01-04T06:07:57.276Z,95.03
2023-01-04T06:08:57.273Z,94.73
2023-01-04T06:09:57.275Z,94.73
2023-01-04T06:10:57.237Z,94.83
2023-01-04T06:11:57.215Z,94.73
2023-01-04T06:12:57.194Z,94.62
2023-01-04T06:13:57.199Z,94.62
2023-01-04T06:14:57.214Z,94.62
2023-01-04T06:15:57.139Z,94.73
2023-01-04T06:16:57.226Z,94.73
2023-01-04T06:17:57.131Z,94.83
2023-01-04T06:18:57.136Z,94.83
2023-01-04T06:19:57.117Z,94.83
2023-01-04T06:20:57.109Z,94.73
2023-01-04T06:21:57.085Z,94.52
2023-01-04T06:22:57.096Z,94.52
2023-01-04T06:23:57.069Z,94.42
2023-01-04T06:24:57.038Z,94.52
2023-01-04T06:25:57.025Z,94.62
2023-01-04T06:26:57.035Z,94.73
2023-01-04T06:27:56.989Z,94.83
2023-01-04T06:28:57.006Z,94.93
2023-01-04T06:29:56.985Z,94.93
2023-01-04T06:30:57.071Z,95.03
2023-01-04T06:31:56.936Z,94.93
2023-01-04T06:32:56.942Z,94.93
2023-01-04T06:33:56.907Z,94.93
2023-01-04T06:34:56.952Z,94.93
2023-01-04T06:35:56.893Z,94.62
2023-01-04T06:36:56.943Z,94.52
2023-01-04T06:37:56.882Z,94.58
2023-01-04T06:38:56.846Z,94.58
2023-01-04T06:39:56.862Z,94.48
2023-01-04T06:40:56.835Z,94.27
2023-01-04T06:42:03.710Z,94.27
2023-01-04T06:42:57.843Z,94.37
2023-01-04T06:43:56.802Z,94.27
2023-01-04T06:44:56.819Z,94.07
2023-01-04T06:45:56.812Z,94.07
2023-01-04T06:46:56.798Z,94.07
2023-01-04T06:47:56.762Z,94.07
2023-01-04T06:48:56.724Z,94.07
2023-01-04T06:49:56.729Z,94.17
2023-01-04T06:50:56.772Z,94.27
2023-01-04T06:51:56.672Z,94.17
2023-01-04T06:52:56.700Z,94.07
2023-01-04T06:53:56.670Z,94.07
2023-01-04T06:54:56.697Z,94.07
2023-01-04T06:55:56.661Z,93.96
2023-01-04T06:56:56.639Z,94.07
2023-01-04T06:57:59.593Z,93.96
2023-01-04T06:58:56.598Z,93.96
2023-01-04T07:00:00.451Z,93.96
2023-01-04T07:00:56.613Z,93.86
2023-01-04T07:01:56.732Z,93.86
2023-01-04T07:03:12.739Z,93.76
2023-01-04T07:03:57.601Z,93.76
2023-01-04T07:04:56.641Z,93.51
2023-01-04T07:05:56.534Z,93.51
2023-01-04T07:06:56.502Z,93.62
2023-01-04T07:07:56.498Z,93.51
2023-01-04T07:08:56.474Z,93.51
2023-01-04T07:09:56.457Z,93.62
2023-01-04T07:10:56.490Z,93.62
2023-01-04T07:11:56.408Z,93.71
2023-01-04T07:12:56.460Z,93.82
2023-01-04T07:13:56.410Z,94.02
2023-01-04T07:14:56.420Z,94.12
2023-01-04T07:15:56.399Z,94.02
2023-01-04T07:16:56.359Z,94.02
2023-01-04T07:18:03.943Z,93.92
2023-01-04T07:18:56.359Z,94.02
2023-01-04T07:19:56.331Z,94.02
2023-01-04T07:20:56.352Z,94.12
2023-01-04T07:21:56.308Z,94.12
2023-01-04T07:22:56.316Z,94.33
2023-01-04T07:23:56.584Z,94.23
2023-01-04T07:24:56.252Z,94.23
2023-01-04T07:25:56.240Z,94.23
2023-01-04T07:26:56.268Z,94.23
2023-01-04T07:27:56.230Z,94.23
2023-01-04T07:28:56.229Z,94.23
2023-01-04T07:29:56.172Z,94.12
2023-01-04T07:30:56.289Z,93.92
2023-01-04T07:31:56.190Z,93.92
2023-01-04T07:32:56.183Z,93.82
2023-01-04T07:33:56.130Z,93.82
2023-01-04T07:34:56.138Z,93.82
2023-01-04T07:35:56.115Z,93.82
2023-01-04T07:36:56.163Z,93.71
2023-01-04T07:37:59.172Z,93.62
2023-01-04T07:38:56.099Z,93.62
2023-01-04T07:39:56.042Z,93.62
2023-01-04T07:40:57.179Z,93.62
2023-01-04T07:41:56.053Z,93.62
2023-01-04T07:42:56.025Z,93.71
2023-01-04T07:43:56.026Z,93.82
2023-01-04T07:44:55.993Z,93.92
2023-01-04T07:45:56.149Z,93.82
2023-01-04T07:46:56.049Z,93.82
2023-01-04T07:47:55.986Z,93.71
2023-01-04T07:48:55.977Z,93.92
2023-01-04T07:49:55.919Z,94.02
2023-01-04T07:50:55.976Z,94.12
2023-01-04T07:51:55.895Z,94.02
2023-01-04T07:52:55.922Z,94.12
2023-01-04T07:53:55.893Z,94.12
2023-01-04T07:54:55.866Z,94.02
2023-01-04T07:55:55.866Z,94.02
2023-01-04T07:56:55.839Z,93.92
2023-01-04T07:57:55.856Z,94.02
2023-01-04T07:58:55.843Z,93.82
2023-01-04T07:59:55.814Z,93.82
2023-01-04T08:00:55.825Z,93.67
2023-01-04T08:01:55.930Z,93.77
2023-01-04T08:02:56.226Z,93.82
2023-01-04T08:03:55.763Z,93.92
2023-01-04T08:04:55.814Z,93.92
2023-01-04T08:05:55.731Z,93.71
2023-01-04T08:06:55.723Z,93.71
2023-01-04T08:07:55.687Z,93.67
2023-01-04T08:08:55.744Z,93.67
2023-01-04T08:09:55.646Z,93.57
2023-01-04T08:10:55.684Z,93.47
2023-01-04T08:11:55.658Z,93.47
2023-01-04T08:12:55.630Z,93.47
2023-01-04T08:13:55.609Z,93.47
2023-01-04T08:14:55.633Z,93.47
2023-01-04T08:15:55.613Z,93.67
2023-01-04T08:16:55.592Z,93.77
2023-01-04T08:17:55.582Z,93.67
2023-01-04T08:18:55.575Z,93.67
2023-01-04T08:19:55.530Z,93.57
2023-01-04T08:20:58.565Z,93.67
2023-01-04T08:21:55.541Z,93.67
2023-01-04T08:22:55.496Z,93.67
2023-01-04T08:23:55.511Z,93.77
2023-01-04T08:24:55.458Z,93.77
2023-01-04T08:25:55.456Z,93.67
2023-01-04T08:26:55.456Z,93.77
2023-01-04T08:27:55.422Z,93.67
2023-01-04T08:28:55.455Z,93.67
2023-01-04T08:29:55.428Z,93.67
2023-01-04T08:30:55.413Z,93.67
2023-01-04T08:31:55.396Z,93.77
2023-01-04T08:32:55.365Z,93.77
2023-01-04T08:33:55.404Z,93.77
2023-01-04T08:34:55.350Z,93.98
2023-01-04T08:35:55.351Z,94.08
2023-01-04T08:36:55.338Z,94.08
2023-01-04T08:38:02.979Z,94.08
2023-01-04T08:38:59.915Z,93.93
2023-01-04T08:39:55.275Z,93.84
2023-01-04T08:40:59.856Z,93.84
2023-01-04T08:41:59.306Z,93.63
2023-01-04T08:42:56.264Z,93.52
2023-01-04T08:43:55.247Z,93.63
2023-01-04T08:44:59.181Z,93.73
2023-01-04T08:45:55.302Z,93.63
2023-01-04T08:46:55.318Z,93.52
2023-01-04T08:47:55.190Z,93.52
2023-01-04T08:48:55.158Z,93.52
2023-01-04T08:49:55.235Z,93.52
2023-01-04T08:50:55.117Z,93.52
2023-01-04T08:51:55.146Z,93.52
2023-01-04T08:52:55.206Z,93.52
2023-01-04T08:53:55.110Z,93.52
2023-01-04T08:54:55.101Z,93.63
2023-01-04T08:55:55.107Z,93.63
2023-01-04T08:56:55.073Z,93.73
2023-01-04T08:57:55.070Z,93.73
2023-01-04T08:58:55.079Z,93.73
2023-01-04T08:59:55.006Z,93.73
2023-01-04T09:00:55.024Z,93.63
2023-01-04T09:02:01.016Z,93.63
2023-01-04T09:02:56.077Z,93.73
2023-01-04T09:03:54.978Z,93.84
2023-01-04T09:04:55.122Z,93.84
2023-01-04T09:05:54.971Z,93.84
2023-01-04T09:06:54.913Z,93.73
2023-01-04T09:07:54.936Z,93.52
2023-01-04T09:08:54.977Z,93.52
2023-01-04T09:09:54.888Z,93.63
2023-01-04T09:10:54.894Z,93.73
2023-01-04T09:11:54.898Z,93.73
2023-01-04T09:12:54.857Z,93.52
2023-01-04T09:13:54.952Z,93.32
2023-01-04T09:14:54.830Z,93.22
2023-01-04T09:15:54.907Z,93.22
2023-01-04T09:16:54.841Z,93.22
2023-01-04T09:18:55.811Z,93.22
2023-01-04T09:19:54.754Z,93.22
2023-01-04T09:20:54.789Z,93.22
2023-01-04T09:21:54.807Z,93.32
2023-01-04T09:22:54.750Z,93.43
2023-01-04T09:23:54.721Z,93.22
2023-01-04T09:24:55.551Z,93.01
2023-01-04T09:25:54.688Z,92.97
2023-01-04T09:26:54.658Z,92.87
2023-01-04T09:27:54.653Z,92.77
2023-01-04T09:28:54.659Z,92.66
2023-01-04T09:29:54.677Z,92.46
2023-01-04T09:30:54.629Z,92.46
2023-01-04T09:31:54.696Z,92.56
2023-01-04T09:32:54.635Z,92.56
2023-01-04T09:34:55.558Z,92.46
2023-01-04T09:35:55.502Z,92.46
2023-01-04T09:36:54.535Z,92.46
2023-01-04T09:37:54.558Z,92.46
2023-01-04T09:38:54.571Z,92.46
2023-01-04T09:39:54.543Z,92.36
2023-01-04T09:40:54.512Z,92.56
2023-01-04T09:41:54.469Z,92.56
2023-01-04T09:43:21.146Z,92.77
2023-01-04T09:43:55.465Z,92.87
2023-01-04T09:45:22.482Z,92.97
2023-01-04T09:45:55.420Z,92.83
2023-01-04T09:46:54.514Z,92.72
2023-01-04T09:47:54.405Z,92.62
2023-01-04T09:48:54.397Z,92.52
2023-01-04T09:49:54.359Z,92.42
2023-01-04T09:50:54.335Z,92.32
2023-01-04T09:51:54.348Z,92.32
2023-01-04T09:52:54.462Z,92.21
2023-01-04T09:53:54.326Z,92.32
2023-01-04T09:54:56.291Z,92.21
2023-01-04T09:55:54.298Z,92.21
2023-01-04T09:56:54.323Z,92.17
2023-01-04T09:57:54.250Z,92.17
2023-01-04T09:58:54.252Z,92.17
2023-01-04T09:59:54.231Z,92.17
2023-01-04T10:00:54.283Z,91.72
2023-01-04T10:01:54.432Z,91.31
2023-01-04T10:02:54.362Z,90.86
2023-01-04T10:03:54.216Z,90.75
2023-01-04T10:04:54.174Z,90.55
2023-01-04T10:05:54.151Z,90.55
2023-01-04T10:06:57.058Z,90.35
2023-01-04T10:07:55.143Z,90.45
2023-01-04T10:08:54.179Z,90.45
2023-01-04T10:09:54.152Z,90.45
2023-01-04T10:10:54.120Z,90.31
2023-01-04T10:11:54.086Z,90.31
2023-01-04T10:12:59.605Z,90.31
2023-01-04T10:13:55.049Z,90.20
2023-01-04T10:14:54.033Z,90.31
2023-01-04T10:15:54.122Z,90.61
2023-01-04T10:19:36.637Z,90.51
2023-01-04T10:19:43.508Z,90.81
2023-01-04T10:21:55.027Z,90.00
2023-01-04T10:22:53.910Z,89.59
2023-01-04T10:23:54.193Z,89.34
2023-01-04T10:24:53.894Z,89.14
2023-01-04T10:25:53.897Z,89.34
2023-01-04T10:26:53.949Z,89.34
2023-01-04T10:27:53.890Z,89.45
2023-01-04T10:28:53.894Z,89.59
2023-01-04T10:29:53.858Z,89.69
2023-01-04T10:30:53.857Z,89.90
2023-01-04T10:31:53.880Z,90.41
2023-01-04T10:32:53.799Z,91.33
2023-01-04T10:33:53.809Z,91.74
2023-01-04T10:34:53.779Z,92.24
2023-01-04T10:35:53.814Z,92.24
2023-01-04T10:36:53.774Z,92.24
2023-01-04T10:37:53.815Z,92.45
2023-01-04T10:38:53.734Z,92.65
2023-01-04T10:39:53.738Z,92.65
2023-01-04T10:40:53.736Z,92.76
2023-01-04T10:41:53.698Z,92.65
2023-01-04T10:42:53.651Z,92.76
2023-01-04T10:44:11.273Z,92.76
2023-01-04T10:44:54.633Z,92.55
2023-01-04T10:45:53.691Z,92.45
2023-01-04T10:46:53.620Z,92.45
2023-01-04T10:47:54.303Z,92.24
2023-01-04T10:48:53.624Z,92.45
2023-01-04T10:49:53.577Z,92.45
2023-01-04T10:50:53.557Z,92.55
2023-01-04T10:51:53.585Z,92.45
2023-01-04T10:52:53.698Z,92.45
2023-01-04T10:53:53.541Z,92.45
2023-01-04T10:54:53.514Z,92.45
2023-01-04T10:56:25.430Z,92.55
2023-01-04T10:56:54.506Z,92.65
2023-01-04T10:57:53.531Z,92.65
2023-01-04T10:58:53.547Z,92.65
2023-01-04T10:59:53.439Z,92.76
2023-01-04T11:00:53.556Z,92.76
2023-01-04T11:01:53.643Z,92.96
2023-01-04T11:02:53.775Z,93.16
2023-01-04T11:03:53.433Z,93.31
2023-01-04T11:04:53.380Z,93.71
2023-01-04T11:05:53.403Z,93.92
2023-01-04T11:06:53.387Z,94.23
2023-01-04T11:07:53.406Z,94.12
2023-01-04T11:08:53.609Z,94.33
2023-01-04T11:09:53.324Z,94.43
2023-01-04T11:10:53.281Z,94.33
2023-01-04T11:11:53.276Z,94.64
2023-01-04T11:12:53.301Z,94.64
2023-01-04T11:13:53.301Z,94.64
2023-01-04T11:14:53.216Z,94.64
2023-01-04T11:15:53.275Z,94.74
2023-01-04T11:16:53.272Z,94.53
2023-01-04T11:17:54.223Z,94.33
2023-01-04T11:18:53.241Z,94.33
2023-01-04T11:19:53.169Z,94.23
2023-01-04T11:20:53.172Z,94.33
2023-01-04T11:21:53.189Z,94.64
2023-01-04T11:22:53.143Z,94.94
2023-01-04T11:23:56.606Z,95.25
2023-01-04T11:25:33.022Z,95.25
2023-01-04T11:25:56.378Z,95.15
2023-01-04T11:26:53.184Z,95.25
2023-01-04T11:27:53.084Z,95.25
2023-01-04T11:28:53.119Z,95.25
2023-01-04T11:29:53.060Z,95.35
2023-01-04T11:30:53.800Z,95.25
2023-01-04T11:31:53.164Z,95.15
2023-01-04T11:32:53.036Z,95.15
2023-01-04T11:33:53.011Z,95.04
2023-01-04T11:34:53.026Z,94.74
2023-01-04T11:35:53.015Z,94.43
2023-01-04T11:36:52.960Z,94.18
2023-01-04T11:37:52.944Z,93.88
2023-01-04T11:38:52.951Z,93.37
2023-01-04T11:39:52.959Z,93.06
2023-01-04T11:40:52.913Z,92.96
2023-01-04T11:41:56.247Z,92.76
2023-01-04T11:42:53.885Z,92.96
2023-01-04T11:43:52.897Z,92.86
2023-01-04T11:44:52.844Z,92.96
2023-01-04T11:45:52.879Z,92.81
2023-01-04T11:46:52.838Z,92.71
2023-01-04T11:47:52.890Z,92.71
2023-01-04T11:48:52.840Z,92.41
2023-01-04T11:49:52.810Z,92.41
2023-01-04T11:50:52.774Z,92.30
2023-01-04T11:51:52.799Z,92.10
2023-01-04T11:52:52.759Z,91.79
2023-01-04T11:53:52.767Z,91.89
2023-01-04T11:54:52.748Z,91.59
2023-01-04T11:55:52.732Z,91.59
2023-01-04T11:56:52.671Z,91.55
2023-01-04T11:57:52.680Z,91.55
2023-01-04T11:58:52.695Z,91.69
2023-01-04T11:59:52.697Z,91.69
2023-01-04T12:00:52.728Z,91.59
2023-01-04T12:01:52.826Z,91.55
2023-01-04T12:03:01.554Z,91.65
2023-01-04T12:03:53.642Z,91.65
2023-01-04T12:04:52.652Z,91.55
2023-01-04T12:05:52.591Z,91.65
2023-01-04T12:06:52.582Z,91.65
2023-01-04T12:07:52.551Z,91.44
2023-01-04T12:08:52.574Z,91.55
2023-01-04T12:09:52.547Z,91.55
2023-01-04T12:10:52.495Z,91.55
2023-01-04T12:11:52.504Z,91.65
2023-01-04T12:12:52.471Z,91.55
2023-01-04T12:13:52.537Z,91.75
2023-01-04T12:14:52.478Z,91.65
2023-01-04T12:15:52.470Z,91.44
2023-01-04T12:16:52.463Z,91.24
2023-01-04T12:17:52.476Z,91.55
2023-01-04T12:18:52.469Z,91.44
2023-01-04T12:19:52.459Z,91.44
2023-01-04T12:20:52.407Z,91.55
2023-01-04T12:21:53.188Z,91.65
2023-01-04T12:22:52.353Z,91.75
2023-01-04T12:23:52.399Z,91.65
2023-01-04T12:24:58.422Z,91.55
2023-01-04T12:25:53.343Z,91.20
2023-01-04T12:26:52.356Z,91.09
2023-01-04T12:27:52.294Z,91.09
2023-01-04T12:28:52.325Z,90.99
2023-01-04T12:29:52.287Z,90.69
2023-01-04T12:30:52.256Z,90.69
2023-01-04T12:31:52.257Z,90.48
2023-01-04T12:32:52.210Z,90.38
2023-01-04T12:33:52.273Z,90.48
2023-01-04T12:34:52.210Z,90.59
2023-01-04T12:35:52.205Z,90.59
2023-01-04T12:36:52.206Z,90.79
2023-01-04T12:37:52.178Z,90.99
2023-01-04T12:38:53.205Z,90.89
2023-01-04T12:39:52.152Z,90.99
2023-01-04T12:40:52.224Z,91.09
2023-01-04T12:41:52.096Z,91.40
2023-01-04T12:42:52.281Z,91.44
2023-01-04T12:43:52.119Z,91.75
2023-01-04T12:44:52.330Z,91.75
2023-01-04T12:45:52.130Z,91.85
2023-01-04T12:46:52.068Z,91.96
2023-01-04T12:47:52.085Z,92.05
2023-01-04T12:48:52.078Z,92.26
2023-01-04T12:49:51.984Z,92.46
2023-01-04T12:51:04.235Z,92.67
2023-01-04T12:52:20.836Z,92.67
2023-01-04T12:53:53.000Z,92.67
2023-01-04T12:54:52.732Z,92.57
2023-01-04T12:55:52.085Z,92.46
2023-01-04T12:56:51.967Z,92.46
2023-01-04T12:57:51.921Z,92.16